sensor_id;sensor_type;location;lat;lon;timestamp;P1;durP1;ratioP1;P2;durP2;ratioP2
32786;SDS011;19139;49.372;8.580;2023-06-05T00:00:18;2.30;;;2.10;;
32786;SDS011;19139;49.372;8.580;2023-06-05T00:02:45;2.00;;;1.90;;
32786;SDS011;19139;49.372;8.580;2023-06-05T00:05:12;1.80;;;1.70;;
32786;SDS011;19139;49.372;8.580;2023-06-05T00:07:39;2.03;;;1.80;;
32786;SDS011;19139;49.372;8.580;2023-06-05T00:10:07;2.43;;;1.80;;
32786;SDS011;19139;49.372;8.580;2023-06-05T00:12:35;2.73;;;1.73;;
32786;SDS011;19139;49.372;8.580;2023-06-05T00:15:02;2.10;;;1.87;;
32786;SDS011;19139;49.372;8.580;2023-06-05T00:17:30;1.70;;;1.60;;
32786;SDS011;19139;49.372;8.580;2023-06-05T00:19:57;2.30;;;2.10;;
32786;SDS011;19139;49.372;8.580;2023-06-05T00:22:27;2.27;;;2.07;;
32786;SDS011;19139;49.372;8.580;2023-06-05T00:24:54;3.03;;;2.20;;
32786;SDS011;19139;49.372;8.580;2023-06-05T00:27:21;2.10;;;1.90;;
32786;SDS011;19139;49.372;8.580;2023-06-05T00:29:48;1.80;;;1.70;;
32786;SDS011;19139;49.372;8.580;2023-06-05T00:32:15;2.00;;;1.80;;
32786;SDS011;19139;49.372;8.580;2023-06-05T00:34:42;2.20;;;2.00;;
32786;SDS011;19139;49.372;8.580;2023-06-05T00:37:09;2.20;;;2.00;;
32786;SDS011;19139;49.372;8.580;2023-06-05T00:39:35;1.70;;;1.60;;
32786;SDS011;19139;49.372;8.580;2023-06-05T00:42:02;2.43;;;2.10;;
32786;SDS011;19139;49.372;8.580;2023-06-05T00:44:29;2.30;;;2.10;;
32786;SDS011;19139;49.372;8.580;2023-06-05T00:46:55;1.83;;;1.73;;
32786;SDS011;19139;49.372;8.580;2023-06-05T00:49:23;2.33;;;2.13;;
32786;SDS011;19139;49.372;8.580;2023-06-05T00:51:50;2.27;;;1.90;;
32786;SDS011;19139;49.372;8.580;2023-06-05T00:54:17;2.00;;;1.87;;
32786;SDS011;19139;49.372;8.580;2023-06-05T00:56:44;2.13;;;1.90;;
32786;SDS011;19139;49.372;8.580;2023-06-05T00:59:11;1.87;;;1.73;;
32786;SDS011;19139;49.372;8.580;2023-06-05T01:01:40;3.13;;;2.00;;
32786;SDS011;19139;49.372;8.580;2023-06-05T01:04:09;2.23;;;2.03;;
32786;SDS011;19139;49.372;8.580;2023-06-05T01:06:35;1.87;;;1.73;;
32786;SDS011;19139;49.372;8.580;2023-06-05T01:09:04;2.10;;;1.90;;
32786;SDS011;19139;49.372;8.580;2023-06-05T01:11:40;2.03;;;1.83;;
32786;SDS011;19139;49.372;8.580;2023-06-05T01:14:22;2.00;;;1.80;;
32786;SDS011;19139;49.372;8.580;2023-06-05T01:16:50;1.80;;;1.60;;
32786;SDS011;19139;49.372;8.580;2023-06-05T01:19:23;2.37;;;2.00;;
32786;SDS011;19139;49.372;8.580;2023-06-05T01:21:51;2.10;;;1.90;;
32786;SDS011;19139;49.372;8.580;2023-06-05T01:24:18;2.93;;;1.90;;
32786;SDS011;19139;49.372;8.580;2023-06-05T01:26:53;1.83;;;1.70;;
32786;SDS011;19139;49.372;8.580;2023-06-05T01:32:07;2.30;;;2.10;;
32786;SDS011;19139;49.372;8.580;2023-06-05T01:34:43;2.27;;;1.73;;
32786;SDS011;19139;49.372;8.580;2023-06-05T01:37:11;2.03;;;1.80;;
32786;SDS011;19139;49.372;8.580;2023-06-05T01:39:41;2.03;;;1.87;;
32786;SDS011;19139;49.372;8.580;2023-06-05T01:42:09;2.23;;;2.03;;
32786;SDS011;19139;49.372;8.580;2023-06-05T01:44:37;2.60;;;2.10;;
32786;SDS011;19139;49.372;8.580;2023-06-05T01:47:04;2.23;;;2.03;;
32786;SDS011;19139;49.372;8.580;2023-06-05T01:49:32;1.80;;;1.70;;
32786;SDS011;19139;49.372;8.580;2023-06-05T01:51:58;2.20;;;2.00;;
32786;SDS011;19139;49.372;8.580;2023-06-05T01:54:25;2.00;;;1.77;;
32786;SDS011;19139;49.372;8.580;2023-06-05T01:56:52;2.40;;;1.87;;
32786;SDS011;19139;49.372;8.580;2023-06-05T01:59:19;1.73;;;1.63;;
32786;SDS011;19139;49.372;8.580;2023-06-05T02:01:46;2.03;;;1.83;;
32786;SDS011;19139;49.372;8.580;2023-06-05T02:04:12;2.07;;;1.77;;
32786;SDS011;19139;49.372;8.580;2023-06-05T02:06:45;2.77;;;2.10;;
32786;SDS011;19139;49.372;8.580;2023-06-05T02:09:11;1.97;;;1.77;;
32786;SDS011;19139;49.372;8.580;2023-06-05T02:11:39;2.13;;;1.93;;
32786;SDS011;19139;49.372;8.580;2023-06-05T02:14:08;2.37;;;2.17;;
32786;SDS011;19139;49.372;8.580;2023-06-05T02:16:39;1.80;;;1.70;;
32786;SDS011;19139;49.372;8.580;2023-06-05T02:19:07;1.90;;;1.60;;
32786;SDS011;19139;49.372;8.580;2023-06-05T02:21:33;1.60;;;1.40;;
32786;SDS011;19139;49.372;8.580;2023-06-05T02:24:04;2.20;;;2.00;;
32786;SDS011;19139;49.372;8.580;2023-06-05T02:26:31;2.10;;;1.70;;
32786;SDS011;19139;49.372;8.580;2023-06-05T02:28:58;2.47;;;2.00;;
32786;SDS011;19139;49.372;8.580;2023-06-05T02:31:24;2.40;;;1.93;;
32786;SDS011;19139;49.372;8.580;2023-06-05T02:33:52;2.17;;;1.97;;
32786;SDS011;19139;49.372;8.580;2023-06-05T02:36:20;1.67;;;1.57;;
32786;SDS011;19139;49.372;8.580;2023-06-05T02:38:48;1.57;;;1.33;;
32786;SDS011;19139;49.372;8.580;2023-06-05T02:41:18;2.03;;;1.83;;
32786;SDS011;19139;49.372;8.580;2023-06-05T02:43:45;2.33;;;1.73;;
32786;SDS011;19139;49.372;8.580;2023-06-05T02:46:12;1.70;;;1.60;;
32786;SDS011;19139;49.372;8.580;2023-06-05T02:48:38;2.30;;;2.10;;
32786;SDS011;19139;49.372;8.580;2023-06-05T02:51:05;2.10;;;1.90;;
32786;SDS011;19139;49.372;8.580;2023-06-05T02:53:33;2.30;;;2.00;;
32786;SDS011;19139;49.372;8.580;2023-06-05T02:55:59;1.90;;;1.70;;
32786;SDS011;19139;49.372;8.580;2023-06-05T02:58:27;1.97;;;1.50;;
32786;SDS011;19139;49.372;8.580;2023-06-05T03:00:54;2.60;;;2.03;;
32786;SDS011;19139;49.372;8.580;2023-06-05T03:03:31;2.83;;;1.83;;
32786;SDS011;19139;49.372;8.580;2023-06-05T03:05:59;2.10;;;2.00;;
32786;SDS011;19139;49.372;8.580;2023-06-05T03:08:34;2.20;;;2.00;;
32786;SDS011;19139;49.372;8.580;2023-06-05T03:11:01;2.00;;;1.60;;
32786;SDS011;19139;49.372;8.580;2023-06-05T03:13:29;2.17;;;1.97;;
32786;SDS011;19139;49.372;8.580;2023-06-05T03:15:57;2.50;;;2.07;;
32786;SDS011;19139;49.372;8.580;2023-06-05T03:18:24;1.97;;;1.87;;
32786;SDS011;19139;49.372;8.580;2023-06-05T03:20:51;2.23;;;2.03;;
32786;SDS011;19139;49.372;8.580;2023-06-05T03:23:21;1.43;;;1.33;;
32786;SDS011;19139;49.372;8.580;2023-06-05T03:25:54;3.53;;;2.30;;
32786;SDS011;19139;49.372;8.580;2023-06-05T03:28:21;2.20;;;2.00;;
32786;SDS011;19139;49.372;8.580;2023-06-05T03:30:49;2.00;;;1.80;;
32786;SDS011;19139;49.372;8.580;2023-06-05T03:33:16;2.10;;;1.80;;
32786;SDS011;19139;49.372;8.580;2023-06-05T03:35:46;1.87;;;1.70;;
32786;SDS011;19139;49.372;8.580;2023-06-05T03:38:13;1.63;;;1.53;;
32786;SDS011;19139;49.372;8.580;2023-06-05T03:40:40;2.47;;;1.57;;
32786;SDS011;19139;49.372;8.580;2023-06-05T03:43:07;2.47;;;1.70;;
32786;SDS011;19139;49.372;8.580;2023-06-05T03:45:35;2.23;;;2.03;;
32786;SDS011;19139;49.372;8.580;2023-06-05T03:48:02;1.33;;;1.23;;
32786;SDS011;19139;49.372;8.580;2023-06-05T03:50:30;3.37;;;1.80;;
32786;SDS011;19139;49.372;8.580;2023-06-05T03:52:58;2.07;;;1.50;;
32786;SDS011;19139;49.372;8.580;2023-06-05T03:55:31;2.40;;;1.83;;
32786;SDS011;19139;49.372;8.580;2023-06-05T03:58:09;1.90;;;1.70;;
32786;SDS011;19139;49.372;8.580;2023-06-05T04:00:43;2.13;;;2.00;;
32786;SDS011;19139;49.372;8.580;2023-06-05T04:03:11;2.07;;;1.60;;
32786;SDS011;19139;49.372;8.580;2023-06-05T04:05:39;2.10;;;1.90;;
32786;SDS011;19139;49.372;8.580;2023-06-05T04:08:06;2.07;;;1.80;;
32786;SDS011;19139;49.372;8.580;2023-06-05T04:10:34;1.90;;;1.70;;
32786;SDS011;19139;49.372;8.580;2023-06-05T04:13:01;2.03;;;1.70;;
32786;SDS011;19139;49.372;8.580;2023-06-05T04:15:29;2.23;;;1.80;;
32786;SDS011;19139;49.372;8.580;2023-06-05T04:17:56;2.03;;;1.87;;
32786;SDS011;19139;49.372;8.580;2023-06-05T04:20:22;1.80;;;1.70;;
32786;SDS011;19139;49.372;8.580;2023-06-05T04:22:49;1.93;;;1.60;;
32786;SDS011;19139;49.372;8.580;2023-06-05T04:25:16;2.07;;;1.70;;
32786;SDS011;19139;49.372;8.580;2023-06-05T04:27:44;2.20;;;1.90;;
32786;SDS011;19139;49.372;8.580;2023-06-05T04:30:12;2.10;;;1.90;;
32786;SDS011;19139;49.372;8.580;2023-06-05T04:32:39;1.40;;;1.30;;
32786;SDS011;19139;49.372;8.580;2023-06-05T04:35:08;1.90;;;1.80;;
32786;SDS011;19139;49.372;8.580;2023-06-05T04:37:36;1.77;;;1.63;;
32786;SDS011;19139;49.372;8.580;2023-06-05T04:40:04;2.23;;;1.73;;
32786;SDS011;19139;49.372;8.580;2023-06-05T04:42:32;2.17;;;1.53;;
32786;SDS011;19139;49.372;8.580;2023-06-05T04:45:00;2.10;;;1.60;;
32786;SDS011;19139;49.372;8.580;2023-06-05T04:47:31;2.50;;;1.50;;
32786;SDS011;19139;49.372;8.580;2023-06-05T04:49:58;2.27;;;2.07;;
32786;SDS011;19139;49.372;8.580;2023-06-05T04:52:26;1.50;;;1.40;;
32786;SDS011;19139;49.372;8.580;2023-06-05T04:54:55;2.23;;;1.80;;
32786;SDS011;19139;49.372;8.580;2023-06-05T04:57:25;1.83;;;1.67;;
32786;SDS011;19139;49.372;8.580;2023-06-05T04:59:53;1.63;;;1.53;;
32786;SDS011;19139;49.372;8.580;2023-06-05T05:02:20;2.80;;;1.97;;
32786;SDS011;19139;49.372;8.580;2023-06-05T05:04:47;1.83;;;1.70;;
32786;SDS011;19139;49.372;8.580;2023-06-05T05:07:14;2.70;;;1.67;;
32786;SDS011;19139;49.372;8.580;2023-06-05T05:09:43;1.93;;;1.80;;
32786;SDS011;19139;49.372;8.580;2023-06-05T05:12:10;1.83;;;1.57;;
32786;SDS011;19139;49.372;8.580;2023-06-05T05:14:37;1.87;;;1.47;;
32786;SDS011;19139;49.372;8.580;2023-06-05T05:17:06;2.20;;;1.80;;
32786;SDS011;19139;49.372;8.580;2023-06-05T05:19:32;1.87;;;1.67;;
32786;SDS011;19139;49.372;8.580;2023-06-05T05:21:59;2.03;;;1.73;;
32786;SDS011;19139;49.372;8.580;2023-06-05T05:24:26;2.13;;;1.60;;
32786;SDS011;19139;49.372;8.580;2023-06-05T05:26:53;2.37;;;1.97;;
32786;SDS011;19139;49.372;8.580;2023-06-05T05:29:19;2.07;;;1.87;;
32786;SDS011;19139;49.372;8.580;2023-06-05T05:31:46;1.70;;;1.50;;
32786;SDS011;19139;49.372;8.580;2023-06-05T05:34:13;1.77;;;1.40;;
32786;SDS011;19139;49.372;8.580;2023-06-05T05:36:39;2.00;;;1.80;;
32786;SDS011;19139;49.372;8.580;2023-06-05T05:39:06;1.97;;;1.80;;
32786;SDS011;19139;49.372;8.580;2023-06-05T05:41:34;1.80;;;1.70;;
32786;SDS011;19139;49.372;8.580;2023-06-05T05:44:01;1.83;;;1.63;;
32786;SDS011;19139;49.372;8.580;2023-06-05T05:46:27;2.13;;;1.53;;
32786;SDS011;19139;49.372;8.580;2023-06-05T05:48:54;1.97;;;1.50;;
32786;SDS011;19139;49.372;8.580;2023-06-05T05:51:21;1.80;;;1.70;;
32786;SDS011;19139;49.372;8.580;2023-06-05T05:53:48;2.77;;;2.17;;
32786;SDS011;19139;49.372;8.580;2023-06-05T05:56:15;1.73;;;1.63;;
32786;SDS011;19139;49.372;8.580;2023-06-05T05:58:42;1.67;;;1.47;;
32786;SDS011;19139;49.372;8.580;2023-06-05T06:01:09;1.80;;;1.63;;
32786;SDS011;19139;49.372;8.580;2023-06-05T06:03:37;1.60;;;1.43;;
32786;SDS011;19139;49.372;8.580;2023-06-05T06:06:05;2.10;;;1.90;;
32786;SDS011;19139;49.372;8.580;2023-06-05T06:08:34;2.07;;;1.83;;
32786;SDS011;19139;49.372;8.580;2023-06-05T06:11:01;1.70;;;1.60;;
32786;SDS011;19139;49.372;8.580;2023-06-05T06:13:33;1.57;;;1.47;;
32786;SDS011;19139;49.372;8.580;2023-06-05T06:16:01;2.00;;;1.80;;
32786;SDS011;19139;49.372;8.580;2023-06-05T06:18:28;2.37;;;1.90;;
32786;SDS011;19139;49.372;8.580;2023-06-05T06:20:55;1.93;;;1.83;;
32786;SDS011;19139;49.372;8.580;2023-06-05T06:23:22;2.10;;;1.90;;
32786;SDS011;19139;49.372;8.580;2023-06-05T06:25:49;1.43;;;1.33;;
32786;SDS011;19139;49.372;8.580;2023-06-05T06:28:18;1.40;;;1.30;;
32786;SDS011;19139;49.372;8.580;2023-06-05T06:30:46;1.33;;;1.23;;
32786;SDS011;19139;49.372;8.580;2023-06-05T06:33:12;1.60;;;1.50;;
32786;SDS011;19139;49.372;8.580;2023-06-05T06:35:39;1.87;;;1.77;;
32786;SDS011;19139;49.372;8.580;2023-06-05T06:38:06;1.70;;;1.47;;
32786;SDS011;19139;49.372;8.580;2023-06-05T06:40:33;2.07;;;1.87;;
32786;SDS011;19139;49.372;8.580;2023-06-05T06:43:01;2.20;;;1.80;;
32786;SDS011;19139;49.372;8.580;2023-06-05T06:45:27;1.47;;;1.33;;
32786;SDS011;19139;49.372;8.580;2023-06-05T06:47:54;1.47;;;1.37;;
32786;SDS011;19139;49.372;8.580;2023-06-05T06:50:33;2.60;;;1.97;;
32786;SDS011;19139;49.372;8.580;2023-06-05T06:53:00;1.80;;;1.70;;
32786;SDS011;19139;49.372;8.580;2023-06-05T06:55:27;2.03;;;1.80;;
32786;SDS011;19139;49.372;8.580;2023-06-05T06:57:54;1.87;;;1.50;;
32786;SDS011;19139;49.372;8.580;2023-06-05T07:00:21;2.30;;;1.70;;
32786;SDS011;19139;49.372;8.580;2023-06-05T07:02:47;2.60;;;1.57;;
32786;SDS011;19139;49.372;8.580;2023-06-05T07:05:15;1.53;;;1.30;;
32786;SDS011;19139;49.372;8.580;2023-06-05T07:07:41;1.83;;;1.57;;
32786;SDS011;19139;49.372;8.580;2023-06-05T07:10:08;1.87;;;1.67;;
32786;SDS011;19139;49.372;8.580;2023-06-05T07:12:35;2.00;;;1.80;;
32786;SDS011;19139;49.372;8.580;2023-06-05T07:15:02;2.07;;;1.73;;
32786;SDS011;19139;49.372;8.580;2023-06-05T07:17:29;3.30;;;1.83;;
32786;SDS011;19139;49.372;8.580;2023-06-05T07:19:57;2.87;;;2.03;;
32786;SDS011;19139;49.372;8.580;2023-06-05T07:22:24;2.10;;;1.90;;
32786;SDS011;19139;49.372;8.580;2023-06-05T07:24:53;1.67;;;1.50;;
32786;SDS011;19139;49.372;8.580;2023-06-05T07:27:19;1.70;;;1.60;;
32786;SDS011;19139;49.372;8.580;2023-06-05T07:29:46;1.70;;;1.60;;
32786;SDS011;19139;49.372;8.580;2023-06-05T07:32:17;1.50;;;1.40;;
32786;SDS011;19139;49.372;8.580;2023-06-05T07:34:44;1.70;;;1.60;;
32786;SDS011;19139;49.372;8.580;2023-06-05T07:37:11;2.47;;;1.40;;
32786;SDS011;19139;49.372;8.580;2023-06-05T07:39:38;2.17;;;1.97;;
32786;SDS011;19139;49.372;8.580;2023-06-05T07:42:05;1.90;;;1.70;;
32786;SDS011;19139;49.372;8.580;2023-06-05T07:44:32;2.23;;;1.53;;
32786;SDS011;19139;49.372;8.580;2023-06-05T07:46:59;1.83;;;1.47;;
32786;SDS011;19139;49.372;8.580;2023-06-05T07:49:29;1.70;;;1.60;;
32786;SDS011;19139;49.372;8.580;2023-06-05T07:51:57;2.03;;;1.70;;
32786;SDS011;19139;49.372;8.580;2023-06-05T07:54:24;1.67;;;1.57;;
32786;SDS011;19139;49.372;8.580;2023-06-05T07:56:50;2.50;;;1.90;;
32786;SDS011;19139;49.372;8.580;2023-06-05T07:59:17;1.77;;;1.60;;
32786;SDS011;19139;49.372;8.580;2023-06-05T08:01:51;2.33;;;1.87;;
32786;SDS011;19139;49.372;8.580;2023-06-05T08:04:18;2.23;;;1.80;;
32786;SDS011;19139;49.372;8.580;2023-06-05T08:06:46;1.77;;;1.67;;
32786;SDS011;19139;49.372;8.580;2023-06-05T08:09:13;2.00;;;1.80;;
32786;SDS011;19139;49.372;8.580;2023-06-05T08:11:39;2.70;;;1.73;;
32786;SDS011;19139;49.372;8.580;2023-06-05T08:14:08;2.43;;;1.97;;
32786;SDS011;19139;49.372;8.580;2023-06-05T08:16:35;2.47;;;2.00;;
32786;SDS011;19139;49.372;8.580;2023-06-05T08:19:02;1.93;;;1.83;;
32786;SDS011;19139;49.372;8.580;2023-06-05T08:21:29;2.13;;;1.70;;
32786;SDS011;19139;49.372;8.580;2023-06-05T08:23:56;1.57;;;1.43;;
32786;SDS011;19139;49.372;8.580;2023-06-05T08:26:23;2.20;;;1.53;;
32786;SDS011;19139;49.372;8.580;2023-06-05T08:28:50;1.87;;;1.63;;
32786;SDS011;19139;49.372;8.580;2023-06-05T08:31:16;2.40;;;2.20;;
32786;SDS011;19139;49.372;8.580;2023-06-05T08:33:43;4.50;;;2.77;;
32786;SDS011;19139;49.372;8.580;2023-06-05T08:36:10;3.33;;;2.93;;
32786;SDS011;19139;49.372;8.580;2023-06-05T08:38:37;4.00;;;3.70;;
32786;SDS011;19139;49.372;8.580;2023-06-05T08:41:07;4.10;;;3.70;;
32786;SDS011;19139;49.372;8.580;2023-06-05T08:43:37;6.33;;;5.73;;
32786;SDS011;19139;49.372;8.580;2023-06-05T08:46:05;7.53;;;6.83;;
32786;SDS011;19139;49.372;8.580;2023-06-05T08:48:37;6.73;;;5.93;;
32786;SDS011;19139;49.372;8.580;2023-06-05T08:51:11;7.07;;;6.43;;
32786;SDS011;19139;49.372;8.580;2023-06-05T08:53:40;7.47;;;6.67;;
32786;SDS011;19139;49.372;8.580;2023-06-05T08:56:08;7.60;;;6.90;;
32786;SDS011;19139;49.372;8.580;2023-06-05T08:58:36;7.70;;;6.90;;
32786;SDS011;19139;49.372;8.580;2023-06-05T09:01:03;7.97;;;7.17;;
32786;SDS011;19139;49.372;8.580;2023-06-05T09:03:32;9.00;;;8.20;;
32786;SDS011;19139;49.372;8.580;2023-06-05T09:05:59;8.87;;;8.07;;
32786;SDS011;19139;49.372;8.580;2023-06-05T09:08:29;9.20;;;8.13;;
32786;SDS011;19139;49.372;8.580;2023-06-05T09:14:00;9.07;;;8.17;;
32786;SDS011;19139;49.372;8.580;2023-06-05T09:16:35;8.30;;;7.37;;
32786;SDS011;19139;49.372;8.580;2023-06-05T09:19:04;8.00;;;7.30;;
32786;SDS011;19139;49.372;8.580;2023-06-05T09:21:31;7.80;;;7.20;;
32786;SDS011;19139;49.372;8.580;2023-06-05T09:29:39;9.13;;;7.83;;
32786;SDS011;19139;49.372;8.580;2023-06-05T09:32:17;7.70;;;7.03;;
32786;SDS011;19139;49.372;8.580;2023-06-05T09:34:47;7.80;;;7.10;;
32786;SDS011;19139;49.372;8.580;2023-06-05T09:37:32;7.67;;;6.87;;
32786;SDS011;19139;49.372;8.580;2023-06-05T09:40:04;8.60;;;7.80;;
32786;SDS011;19139;49.372;8.580;2023-06-05T09:42:32;7.83;;;7.03;;
32786;SDS011;19139;49.372;8.580;2023-06-05T09:45:00;7.97;;;7.27;;
32786;SDS011;19139;49.372;8.580;2023-06-05T09:47:27;8.03;;;6.60;;
32786;SDS011;19139;49.372;8.580;2023-06-05T09:50:08;9.60;;;7.90;;
32786;SDS011;19139;49.372;8.580;2023-06-05T09:52:47;8.93;;;7.43;;
32786;SDS011;19139;49.372;8.580;2023-06-05T09:55:14;8.77;;;7.83;;
32786;SDS011;19139;49.372;8.580;2023-06-05T09:57:41;8.17;;;7.00;;
32786;SDS011;19139;49.372;8.580;2023-06-05T10:00:09;8.97;;;6.97;;
32786;SDS011;19139;49.372;8.580;2023-06-05T10:02:38;12.33;;;8.77;;
32786;SDS011;19139;49.372;8.580;2023-06-05T10:05:05;14.60;;;9.10;;
32786;SDS011;19139;49.372;8.580;2023-06-05T10:07:35;11.00;;;8.57;;
32786;SDS011;19139;49.372;8.580;2023-06-05T10:10:05;8.93;;;7.70;;
32786;SDS011;19139;49.372;8.580;2023-06-05T10:12:35;10.97;;;7.40;;
32786;SDS011;19139;49.372;8.580;2023-06-05T10:15:02;15.63;;;8.07;;
32786;SDS011;19139;49.372;8.580;2023-06-05T10:17:29;10.90;;;8.77;;
32786;SDS011;19139;49.372;8.580;2023-06-05T10:19:56;11.50;;;8.40;;
32786;SDS011;19139;49.372;8.580;2023-06-05T10:22:23;9.00;;;7.77;;
32786;SDS011;19139;49.372;8.580;2023-06-05T10:24:57;11.73;;;9.60;;
32786;SDS011;19139;49.372;8.580;2023-06-05T10:27:37;9.23;;;8.13;;
32786;SDS011;19139;49.372;8.580;2023-06-05T10:38:27;9.10;;;8.20;;
32786;SDS011;19139;49.372;8.580;2023-06-05T10:41:01;9.80;;;8.80;;
32786;SDS011;19139;49.372;8.580;2023-06-05T10:46:02;9.67;;;7.80;;
32786;SDS011;19139;49.372;8.580;2023-06-05T10:51:39;8.70;;;7.70;;
32786;SDS011;19139;49.372;8.580;2023-06-05T10:59:23;10.13;;;9.13;;
32786;SDS011;19139;49.372;8.580;2023-06-05T11:10:16;10.47;;;8.90;;
32786;SDS011;19139;49.372;8.580;2023-06-05T11:15:11;8.93;;;7.73;;
32786;SDS011;19139;49.372;8.580;2023-06-05T11:17:40;8.23;;;7.43;;
32786;SDS011;19139;49.372;8.580;2023-06-05T11:20:48;10.70;;;7.63;;
32786;SDS011;19139;49.372;8.580;2023-06-05T11:25:27;9.40;;;7.80;;
32786;SDS011;19139;49.372;8.580;2023-06-05T11:27:59;8.37;;;7.50;;
32786;SDS011;19139;49.372;8.580;2023-06-05T11:30:32;9.90;;;8.90;;
32786;SDS011;19139;49.372;8.580;2023-06-05T11:33:13;10.00;;;9.00;;
32786;SDS011;19139;49.372;8.580;2023-06-05T11:35:45;9.60;;;8.77;;
32786;SDS011;19139;49.372;8.580;2023-06-05T11:38:21;8.40;;;7.20;;
32786;SDS011;19139;49.372;8.580;2023-06-05T11:40:50;8.43;;;7.63;;
32786;SDS011;19139;49.372;8.580;2023-06-05T11:43:17;8.50;;;7.70;;
32786;SDS011;19139;49.372;8.580;2023-06-05T11:46:02;12.03;;;8.63;;
32786;SDS011;19139;49.372;8.580;2023-06-05T11:48:29;8.67;;;7.77;;
32786;SDS011;19139;49.372;8.580;2023-06-05T11:51:01;9.50;;;8.10;;
32786;SDS011;19139;49.372;8.580;2023-06-05T11:53:30;9.43;;;8.00;;
32786;SDS011;19139;49.372;8.580;2023-06-05T11:55:57;8.50;;;7.70;;
32786;SDS011;19139;49.372;8.580;2023-06-05T11:58:31;10.33;;;8.93;;
32786;SDS011;19139;49.372;8.580;2023-06-05T12:01:07;10.47;;;8.80;;
32786;SDS011;19139;49.372;8.580;2023-06-05T12:03:44;9.00;;;8.10;;
32786;SDS011;19139;49.372;8.580;2023-06-05T12:06:12;9.67;;;8.17;;
32786;SDS011;19139;49.372;8.580;2023-06-05T12:08:40;8.77;;;7.37;;
32786;SDS011;19139;49.372;8.580;2023-06-05T12:11:24;9.00;;;8.10;;
32786;SDS011;19139;49.372;8.580;2023-06-05T12:13:53;8.93;;;8.00;;
32786;SDS011;19139;49.372;8.580;2023-06-05T12:16:34;9.13;;;8.30;;
32786;SDS011;19139;49.372;8.580;2023-06-05T12:19:18;9.70;;;7.47;;
32786;SDS011;19139;49.372;8.580;2023-06-05T12:21:46;10.47;;;8.77;;
32786;SDS011;19139;49.372;8.580;2023-06-05T12:24:14;9.90;;;8.30;;
32786;SDS011;19139;49.372;8.580;2023-06-05T12:29:26;8.60;;;6.90;;
32786;SDS011;19139;49.372;8.580;2023-06-05T12:32:01;8.87;;;7.40;;
32786;SDS011;19139;49.372;8.580;2023-06-05T12:34:44;8.80;;;7.97;;
32786;SDS011;19139;49.372;8.580;2023-06-05T12:37:24;8.17;;;7.30;;
32786;SDS011;19139;49.372;8.580;2023-06-05T12:39:55;9.23;;;7.17;;
32786;SDS011;19139;49.372;8.580;2023-06-05T12:42:24;7.47;;;6.77;;
32786;SDS011;19139;49.372;8.580;2023-06-05T12:44:51;17.30;;;7.73;;
32786;SDS011;19139;49.372;8.580;2023-06-05T12:47:18;9.47;;;7.43;;
32786;SDS011;19139;49.372;8.580;2023-06-05T12:49:45;7.83;;;7.03;;
32786;SDS011;19139;49.372;8.580;2023-06-05T12:52:12;8.27;;;6.87;;
32786;SDS011;19139;49.372;8.580;2023-06-05T12:54:38;6.97;;;6.27;;
32786;SDS011;19139;49.372;8.580;2023-06-05T12:57:05;7.47;;;6.70;;
32786;SDS011;19139;49.372;8.580;2023-06-05T12:59:37;8.30;;;7.27;;
32786;SDS011;19139;49.372;8.580;2023-06-05T13:02:04;7.30;;;6.60;;
32786;SDS011;19139;49.372;8.580;2023-06-05T13:04:32;7.80;;;7.10;;
32786;SDS011;19139;49.372;8.580;2023-06-05T13:07:01;7.93;;;7.13;;
32786;SDS011;19139;49.372;8.580;2023-06-05T13:09:29;8.27;;;6.80;;
32786;SDS011;19139;49.372;8.580;2023-06-05T13:11:56;7.37;;;6.53;;
32786;SDS011;19139;49.372;8.580;2023-06-05T13:14:25;7.37;;;6.67;;
32786;SDS011;19139;49.372;8.580;2023-06-05T13:16:52;6.73;;;6.03;;
32786;SDS011;19139;49.372;8.580;2023-06-05T13:19:19;7.63;;;6.13;;
32786;SDS011;19139;49.372;8.580;2023-06-05T13:21:47;7.93;;;6.40;;
32786;SDS011;19139;49.372;8.580;2023-06-05T13:24:13;7.43;;;6.73;;
32786;SDS011;19139;49.372;8.580;2023-06-05T13:26:40;7.00;;;6.30;;
32786;SDS011;19139;49.372;8.580;2023-06-05T13:29:09;8.80;;;6.40;;
32786;SDS011;19139;49.372;8.580;2023-06-05T13:31:36;7.63;;;6.93;;
32786;SDS011;19139;49.372;8.580;2023-06-05T13:34:03;6.70;;;6.10;;
32786;SDS011;19139;49.372;8.580;2023-06-05T13:36:30;6.33;;;5.83;;
32786;SDS011;19139;49.372;8.580;2023-06-05T13:38:57;7.90;;;6.30;;
32786;SDS011;19139;49.372;8.580;2023-06-05T13:41:24;6.40;;;5.70;;
32786;SDS011;19139;49.372;8.580;2023-06-05T13:43:52;6.70;;;6.10;;
32786;SDS011;19139;49.372;8.580;2023-06-05T13:46:19;6.23;;;5.67;;
32786;SDS011;19139;49.372;8.580;2023-06-05T13:48:46;6.20;;;5.63;;
32786;SDS011;19139;49.372;8.580;2023-06-05T13:51:13;6.17;;;5.57;;
32786;SDS011;19139;49.372;8.580;2023-06-05T13:53:39;7.73;;;6.20;;
32786;SDS011;19139;49.372;8.580;2023-06-05T13:56:06;6.87;;;6.27;;
32786;SDS011;19139;49.372;8.580;2023-06-05T13:58:33;6.47;;;5.90;;
32786;SDS011;19139;49.372;8.580;2023-06-05T14:01:00;7.27;;;6.50;;
32786;SDS011;19139;49.372;8.580;2023-06-05T14:03:27;5.97;;;5.40;;
32786;SDS011;19139;49.372;8.580;2023-06-05T14:05:54;6.97;;;5.80;;
32786;SDS011;19139;49.372;8.580;2023-06-05T14:08:21;7.03;;;6.13;;
32786;SDS011;19139;49.372;8.580;2023-06-05T14:10:47;6.50;;;5.90;;
32786;SDS011;19139;49.372;8.580;2023-06-05T14:13:14;7.20;;;6.53;;
32786;SDS011;19139;49.372;8.580;2023-06-05T14:15:41;6.57;;;5.97;;
32786;SDS011;19139;49.372;8.580;2023-06-05T14:18:08;5.90;;;5.40;;
32786;SDS011;19139;49.372;8.580;2023-06-05T14:20:35;6.33;;;5.70;;
32786;SDS011;19139;49.372;8.580;2023-06-05T14:23:02;6.43;;;5.73;;
32786;SDS011;19139;49.372;8.580;2023-06-05T14:25:29;6.83;;;5.97;;
32786;SDS011;19139;49.372;8.580;2023-06-05T14:27:56;6.20;;;5.57;;
32786;SDS011;19139;49.372;8.580;2023-06-05T14:30:24;8.00;;;5.90;;
32786;SDS011;19139;49.372;8.580;2023-06-05T14:32:52;5.90;;;5.40;;
32786;SDS011;19139;49.372;8.580;2023-06-05T14:35:19;5.93;;;5.43;;
32786;SDS011;19139;49.372;8.580;2023-06-05T14:37:47;6.67;;;5.97;;
32786;SDS011;19139;49.372;8.580;2023-06-05T14:40:14;5.70;;;5.13;;
32786;SDS011;19139;49.372;8.580;2023-06-05T14:42:41;7.80;;;5.43;;
32786;SDS011;19139;49.372;8.580;2023-06-05T14:45:08;7.13;;;5.60;;
32786;SDS011;19139;49.372;8.580;2023-06-05T14:47:35;6.47;;;5.63;;
32786;SDS011;19139;49.372;8.580;2023-06-05T14:50:05;6.23;;;5.37;;
32786;SDS011;19139;49.372;8.580;2023-06-05T14:52:33;7.50;;;5.90;;
32786;SDS011;19139;49.372;8.580;2023-06-05T14:55:00;6.67;;;6.07;;
32786;SDS011;19139;49.372;8.580;2023-06-05T14:57:31;6.93;;;5.40;;
32786;SDS011;19139;49.372;8.580;2023-06-05T15:00:00;5.73;;;5.10;;
32786;SDS011;19139;49.372;8.580;2023-06-05T15:02:27;6.17;;;5.23;;
32786;SDS011;19139;49.372;8.580;2023-06-05T15:04:54;6.10;;;5.50;;
32786;SDS011;19139;49.372;8.580;2023-06-05T15:07:22;5.87;;;5.37;;
32786;SDS011;19139;49.372;8.580;2023-06-05T15:09:49;5.60;;;5.10;;
32786;SDS011;19139;49.372;8.580;2023-06-05T15:12:17;5.60;;;5.00;;
32786;SDS011;19139;49.372;8.580;2023-06-05T15:14:43;6.20;;;5.60;;
32786;SDS011;19139;49.372;8.580;2023-06-05T15:17:10;6.57;;;6.07;;
32786;SDS011;19139;49.372;8.580;2023-06-05T15:19:37;6.60;;;5.43;;
32786;SDS011;19139;49.372;8.580;2023-06-05T15:22:04;5.43;;;4.67;;
32786;SDS011;19139;49.372;8.580;2023-06-05T15:24:32;5.53;;;4.37;;
32786;SDS011;19139;49.372;8.580;2023-06-05T15:26:59;4.83;;;4.33;;
32786;SDS011;19139;49.372;8.580;2023-06-05T15:29:27;5.93;;;5.33;;
32786;SDS011;19139;49.372;8.580;2023-06-05T15:31:53;5.27;;;4.80;;
32786;SDS011;19139;49.372;8.580;2023-06-05T15:34:36;5.17;;;4.67;;
32786;SDS011;19139;49.372;8.580;2023-06-05T15:37:06;5.77;;;4.90;;
32786;SDS011;19139;49.372;8.580;2023-06-05T15:39:32;5.77;;;5.17;;
32786;SDS011;19139;49.372;8.580;2023-06-05T15:41:59;5.60;;;5.10;;